sensor_id;sensor_type;location;lat;lon;timestamp;P1;durP1;ratioP1;P2;durP2;ratioP2
72951;SDS011;61102;51.956;5.878;2022-09-21T00:01:15;0.30;;;0.20;;
72951;SDS011;61102;51.956;5.878;2022-09-21T00:03:50;1.17;;;0.17;;
72951;SDS011;61102;51.956;5.878;2022-09-21T00:06:19;3.22;;;0.50;;
72951;SDS011;61102;51.956;5.878;2022-09-21T00:08:46;1.70;;;0.30;;
72951;SDS011;61102;51.956;5.878;2022-09-21T00:11:14;1.75;;;0.63;;
72951;SDS011;61102;51.956;5.878;2022-09-21T00:13:43;1.70;;;0.30;;
72951;SDS011;61102;51.956;5.878;2022-09-21T00:16:12;0.57;;;0.22;;
72951;SDS011;61102;51.956;5.878;2022-09-21T00:18:40;2.20;;;0.40;;
72951;SDS011;61102;51.956;5.878;2022-09-21T00:21:10;3.15;;;0.50;;
72951;SDS011;61102;51.956;5.878;2022-09-21T00:23:38;2.00;;;0.25;;
72951;SDS011;61102;51.956;5.878;2022-09-21T00:26:06;2.50;;;0.40;;
72951;SDS011;61102;51.956;5.878;2022-09-21T00:28:40;2.13;;;0.25;;
72951;SDS011;61102;51.956;5.878;2022-09-21T00:31:10;2.72;;;0.30;;
72951;SDS011;61102;51.956;5.878;2022-09-21T00:33:38;1.48;;;0.30;;
72951;SDS011;61102;51.956;5.878;2022-09-21T00:36:13;0.73;;;0.30;;
72951;SDS011;61102;51.956;5.878;2022-09-21T00:38:42;1.98;;;0.30;;
72951;SDS011;61102;51.956;5.878;2022-09-21T00:41:09;2.08;;;0.40;;
72951;SDS011;61102;51.956;5.878;2022-09-21T00:43:38;1.63;;;0.20;;
72951;SDS011;61102;51.956;5.878;2022-09-21T00:46:32;1.83;;;0.30;;
72951;SDS011;61102;51.956;5.878;2022-09-21T00:48:57;1.15;;;0.30;;
72951;SDS011;61102;51.956;5.878;2022-09-21T00:51:24;1.55;;;0.40;;
72951;SDS011;61102;51.956;5.878;2022-09-21T00:53:52;1.63;;;0.40;;
72951;SDS011;61102;51.956;5.878;2022-09-21T00:56:23;2.30;;;0.40;;
72951;SDS011;61102;51.956;5.878;2022-09-21T00:58:50;1.35;;;0.32;;
72951;SDS011;61102;51.956;5.878;2022-09-21T01:01:18;0.90;;;0.30;;
72951;SDS011;61102;51.956;5.878;2022-09-21T01:03:45;0.60;;;0.25;;
72951;SDS011;61102;51.956;5.878;2022-09-21T01:06:14;1.05;;;0.25;;
72951;SDS011;61102;51.956;5.878;2022-09-21T01:08:43;1.38;;;0.30;;
72951;SDS011;61102;51.956;5.878;2022-09-21T01:16:57;1.30;;;0.30;;
72951;SDS011;61102;51.956;5.878;2022-09-21T01:25:47;0.75;;;0.20;;
72951;SDS011;61102;51.956;5.878;2022-09-21T01:31:32;1.10;;;0.32;;
72951;SDS011;61102;51.956;5.878;2022-09-21T01:34:06;2.88;;;0.40;;
72951;SDS011;61102;51.956;5.878;2022-09-21T01:36:41;1.92;;;0.30;;
72951;SDS011;61102;51.956;5.878;2022-09-21T01:39:12;2.78;;;0.40;;
72951;SDS011;61102;51.956;5.878;2022-09-21T01:41:40;1.27;;;0.30;;
72951;SDS011;61102;51.956;5.878;2022-09-21T01:44:11;1.02;;;0.30;;
72951;SDS011;61102;51.956;5.878;2022-09-21T01:46:42;1.85;;;0.28;;
72951;SDS011;61102;51.956;5.878;2022-09-21T01:49:19;0.57;;;0.20;;
72951;SDS011;61102;51.956;5.878;2022-09-21T01:51:54;1.33;;;0.30;;
72951;SDS011;61102;51.956;5.878;2022-09-21T01:54:33;1.48;;;0.30;;
72951;SDS011;61102;51.956;5.878;2022-09-21T01:57:22;1.88;;;0.25;;
72951;SDS011;61102;51.956;5.878;2022-09-21T01:59:57;0.32;;;0.20;;
72951;SDS011;61102;51.956;5.878;2022-09-21T02:02:29;0.30;;;0.20;;
72951;SDS011;61102;51.956;5.878;2022-09-21T02:05:17;1.10;;;0.30;;
72951;SDS011;61102;51.956;5.878;2022-09-21T02:07:46;2.92;;;0.50;;
72951;SDS011;61102;51.956;5.878;2022-09-21T02:10:48;0.45;;;0.20;;
72951;SDS011;61102;51.956;5.878;2022-09-21T02:13:12;1.65;;;0.38;;
72951;SDS011;61102;51.956;5.878;2022-09-21T02:21:06;1.88;;;0.30;;
72951;SDS011;61102;51.956;5.878;2022-09-21T02:26:18;0.60;;;0.20;;
72951;SDS011;61102;51.956;5.878;2022-09-21T02:28:57;0.88;;;0.28;;
72951;SDS011;61102;51.956;5.878;2022-09-21T02:34:20;0.55;;;0.20;;
72951;SDS011;61102;51.956;5.878;2022-09-21T02:37:04;0.43;;;0.20;;
72951;SDS011;61102;51.956;5.878;2022-09-21T02:42:32;2.58;;;0.43;;
72951;SDS011;61102;51.956;5.878;2022-09-21T02:45:08;2.25;;;0.60;;
72951;SDS011;61102;51.956;5.878;2022-09-21T02:47:47;3.45;;;0.77;;
72951;SDS011;61102;51.956;5.878;2022-09-21T02:50:20;1.75;;;0.50;;
72951;SDS011;61102;51.956;5.878;2022-09-21T02:52:50;1.35;;;0.45;;
72951;SDS011;61102;51.956;5.878;2022-09-21T02:55:19;3.60;;;0.50;;
72951;SDS011;61102;51.956;5.878;2022-09-21T02:57:46;1.40;;;0.43;;
72951;SDS011;61102;51.956;5.878;2022-09-21T03:00:14;3.85;;;0.70;;
72951;SDS011;61102;51.956;5.878;2022-09-21T03:02:42;1.60;;;0.47;;
72951;SDS011;61102;51.956;5.878;2022-09-21T03:05:10;1.60;;;0.40;;
72951;SDS011;61102;51.956;5.878;2022-09-21T03:07:38;1.73;;;0.38;;
72951;SDS011;61102;51.956;5.878;2022-09-21T03:10:04;2.17;;;0.43;;
72951;SDS011;61102;51.956;5.878;2022-09-21T03:12:32;0.80;;;0.22;;
72951;SDS011;61102;51.956;5.878;2022-09-21T03:14:59;5.22;;;0.50;;
72951;SDS011;61102;51.956;5.878;2022-09-21T03:17:25;1.08;;;0.32;;
72951;SDS011;61102;51.956;5.878;2022-09-21T03:19:52;1.80;;;0.40;;
72951;SDS011;61102;51.956;5.878;2022-09-21T03:22:22;1.17;;;0.32;;
72951;SDS011;61102;51.956;5.878;2022-09-21T03:24:48;0.25;;;0.20;;
72951;SDS011;61102;51.956;5.878;2022-09-21T03:27:16;2.63;;;0.30;;
72951;SDS011;61102;51.956;5.878;2022-09-21T03:29:45;0.98;;;0.30;;
72951;SDS011;61102;51.956;5.878;2022-09-21T03:32:12;1.30;;;0.40;;
72951;SDS011;61102;51.956;5.878;2022-09-21T03:34:39;1.83;;;0.30;;
72951;SDS011;61102;51.956;5.878;2022-09-21T03:37:06;1.30;;;0.20;;
72951;SDS011;61102;51.956;5.878;2022-09-21T03:39:33;0.40;;;0.17;;
72951;SDS011;61102;51.956;5.878;2022-09-21T03:42:00;0.82;;;0.30;;
72951;SDS011;61102;51.956;5.878;2022-09-21T03:44:28;1.67;;;0.38;;
72951;SDS011;61102;51.956;5.878;2022-09-21T03:46:56;1.08;;;0.30;;
72951;SDS011;61102;51.956;5.878;2022-09-21T03:49:23;1.55;;;0.30;;
72951;SDS011;61102;51.956;5.878;2022-09-21T03:51:49;0.82;;;0.30;;
72951;SDS011;61102;51.956;5.878;2022-09-21T03:54:16;1.52;;;0.28;;
72951;SDS011;61102;51.956;5.878;2022-09-21T03:56:42;0.55;;;0.22;;
72951;SDS011;61102;51.956;5.878;2022-09-21T03:59:08;0.90;;;0.30;;
72951;SDS011;61102;51.956;5.878;2022-09-21T04:01:34;1.02;;;0.20;;
72951;SDS011;61102;51.956;5.878;2022-09-21T04:04:01;2.20;;;0.40;;
72951;SDS011;61102;51.956;5.878;2022-09-21T04:06:27;1.35;;;0.30;;
72951;SDS011;61102;51.956;5.878;2022-09-21T04:08:54;0.57;;;0.20;;
72951;SDS011;61102;51.956;5.878;2022-09-21T04:11:22;0.98;;;0.28;;
72951;SDS011;61102;51.956;5.878;2022-09-21T04:13:48;0.98;;;0.30;;
72951;SDS011;61102;51.956;5.878;2022-09-21T04:16:16;0.70;;;0.32;;
72951;SDS011;61102;51.956;5.878;2022-09-21T04:18:43;0.50;;;0.15;;
72951;SDS011;61102;51.956;5.878;2022-09-21T04:21:09;1.08;;;0.30;;
72951;SDS011;61102;51.956;5.878;2022-09-21T04:23:35;0.55;;;0.30;;
72951;SDS011;61102;51.956;5.878;2022-09-21T04:26:01;0.30;;;0.20;;
72951;SDS011;61102;51.956;5.878;2022-09-21T04:28:30;1.02;;;0.20;;
72951;SDS011;61102;51.956;5.878;2022-09-21T04:30:57;0.70;;;0.28;;
72951;SDS011;61102;51.956;5.878;2022-09-21T04:33:23;2.83;;;0.50;;
72951;SDS011;61102;51.956;5.878;2022-09-21T04:35:53;1.83;;;0.30;;
72951;SDS011;61102;51.956;5.878;2022-09-21T04:38:20;0.73;;;0.10;;
72951;SDS011;61102;51.956;5.878;2022-09-21T04:40:53;1.05;;;0.20;;
72951;SDS011;61102;51.956;5.878;2022-09-21T04:43:22;1.27;;;0.30;;
72951;SDS011;61102;51.956;5.878;2022-09-21T04:45:49;3.05;;;0.30;;
72951;SDS011;61102;51.956;5.878;2022-09-21T04:48:15;1.85;;;0.20;;
72951;SDS011;61102;51.956;5.878;2022-09-21T04:50:43;1.55;;;0.30;;
72951;SDS011;61102;51.956;5.878;2022-09-21T04:53:13;2.22;;;0.30;;
72951;SDS011;61102;51.956;5.878;2022-09-21T04:55:39;0.68;;;0.30;;
72951;SDS011;61102;51.956;5.878;2022-09-21T04:58:06;1.00;;;0.30;;
72951;SDS011;61102;51.956;5.878;2022-09-21T05:00:32;1.65;;;0.20;;
72951;SDS011;61102;51.956;5.878;2022-09-21T05:02:59;1.05;;;0.20;;
72951;SDS011;61102;51.956;5.878;2022-09-21T05:05:26;1.38;;;0.30;;
72951;SDS011;61102;51.956;5.878;2022-09-21T05:07:52;1.45;;;0.28;;
72951;SDS011;61102;51.956;5.878;2022-09-21T05:10:19;1.15;;;0.30;;
72951;SDS011;61102;51.956;5.878;2022-09-21T05:12:45;1.55;;;0.50;;
72951;SDS011;61102;51.956;5.878;2022-09-21T05:15:12;1.35;;;0.28;;
72951;SDS011;61102;51.956;5.878;2022-09-21T05:17:39;0.43;;;0.20;;
72951;SDS011;61102;51.956;5.878;2022-09-21T05:20:06;0.88;;;0.30;;
72951;SDS011;61102;51.956;5.878;2022-09-21T05:22:33;1.30;;;0.28;;
72951;SDS011;61102;51.956;5.878;2022-09-21T05:25:00;0.80;;;0.30;;
72951;SDS011;61102;51.956;5.878;2022-09-21T05:27:27;0.93;;;0.28;;
72951;SDS011;61102;51.956;5.878;2022-09-21T05:29:53;1.08;;;0.35;;
72951;SDS011;61102;51.956;5.878;2022-09-21T05:32:24;1.20;;;0.35;;
72951;SDS011;61102;51.956;5.878;2022-09-21T05:35:15;2.15;;;0.50;;
72951;SDS011;61102;51.956;5.878;2022-09-21T05:40:23;0.90;;;0.32;;
72951;SDS011;61102;51.956;5.878;2022-09-21T05:42:50;1.77;;;0.40;;
72951;SDS011;61102;51.956;5.878;2022-09-21T05:45:17;3.05;;;0.47;;
72951;SDS011;61102;51.956;5.878;2022-09-21T05:47:53;0.80;;;0.30;;
72951;SDS011;61102;51.956;5.878;2022-09-21T05:53:42;0.95;;;0.28;;
72951;SDS011;61102;51.956;5.878;2022-09-21T05:55:58;0.82;;;0.30;;
72951;SDS011;61102;51.956;5.878;2022-09-21T06:04:54;0.80;;;0.30;;
72951;SDS011;61102;51.956;5.878;2022-09-21T06:07:22;3.33;;;0.40;;
72951;SDS011;61102;51.956;5.878;2022-09-21T06:09:48;2.63;;;0.40;;
72951;SDS011;61102;51.956;5.878;2022-09-21T06:12:14;1.95;;;0.35;;
72951;SDS011;61102;51.956;5.878;2022-09-21T06:14:41;2.00;;;0.40;;
72951;SDS011;61102;51.956;5.878;2022-09-21T06:17:07;1.35;;;0.43;;
72951;SDS011;61102;51.956;5.878;2022-09-21T06:19:33;1.77;;;0.40;;
72951;SDS011;61102;51.956;5.878;2022-09-21T06:22:00;0.82;;;0.30;;
72951;SDS011;61102;51.956;5.878;2022-09-21T06:24:26;1.20;;;0.40;;
72951;SDS011;61102;51.956;5.878;2022-09-21T06:26:52;1.00;;;0.35;;
72951;SDS011;61102;51.956;5.878;2022-09-21T06:29:18;2.15;;;0.50;;
72951;SDS011;61102;51.956;5.878;2022-09-21T06:31:49;1.45;;;0.52;;
72951;SDS011;61102;51.956;5.878;2022-09-21T06:34:19;3.30;;;0.52;;
72951;SDS011;61102;51.956;5.878;2022-09-21T06:36:45;9.35;;;0.85;;
72951;SDS011;61102;51.956;5.878;2022-09-21T06:39:11;3.83;;;0.60;;
72951;SDS011;61102;51.956;5.878;2022-09-21T06:41:38;3.70;;;0.60;;
72951;SDS011;61102;51.956;5.878;2022-09-21T06:44:09;2.65;;;0.40;;
72951;SDS011;61102;51.956;5.878;2022-09-21T06:46:35;2.33;;;0.63;;
72951;SDS011;61102;51.956;5.878;2022-09-21T06:49:01;4.88;;;0.95;;
72951;SDS011;61102;51.956;5.878;2022-09-21T06:51:28;3.03;;;1.00;;
72951;SDS011;61102;51.956;5.878;2022-09-21T06:53:54;5.00;;;0.98;;
72951;SDS011;61102;51.956;5.878;2022-09-21T06:58:47;4.07;;;0.75;;
72951;SDS011;61102;51.956;5.878;2022-09-21T07:01:14;5.07;;;0.93;;
72951;SDS011;61102;51.956;5.878;2022-09-21T07:03:41;11.52;;;1.75;;
72951;SDS011;61102;51.956;5.878;2022-09-21T07:06:08;8.25;;;1.50;;
72951;SDS011;61102;51.956;5.878;2022-09-21T07:08:36;8.75;;;1.52;;
72951;SDS011;61102;51.956;5.878;2022-09-21T07:11:04;6.30;;;1.20;;
72951;SDS011;61102;51.956;5.878;2022-09-21T07:13:31;6.05;;;1.15;;
72951;SDS011;61102;51.956;5.878;2022-09-21T07:15:57;4.53;;;1.13;;
72951;SDS011;61102;51.956;5.878;2022-09-21T07:18:24;4.68;;;1.30;;
72951;SDS011;61102;51.956;5.878;2022-09-21T07:20:50;5.38;;;1.40;;
72951;SDS011;61102;51.956;5.878;2022-09-21T07:23:17;2.67;;;0.95;;
72951;SDS011;61102;51.956;5.878;2022-09-21T07:25:45;5.78;;;1.50;;
72951;SDS011;61102;51.956;5.878;2022-09-21T07:28:17;7.53;;;1.20;;
72951;SDS011;61102;51.956;5.878;2022-09-21T07:30:44;4.68;;;1.10;;
72951;SDS011;61102;51.956;5.878;2022-09-21T07:33:10;3.83;;;1.00;;
72951;SDS011;61102;51.956;5.878;2022-09-21T07:35:37;8.93;;;1.50;;
72951;SDS011;61102;51.956;5.878;2022-09-21T07:38:05;3.92;;;1.08;;
72951;SDS011;61102;51.956;5.878;2022-09-21T07:40:32;4.35;;;1.15;;
72951;SDS011;61102;51.956;5.878;2022-09-21T07:43:00;2.95;;;0.93;;
72951;SDS011;61102;51.956;5.878;2022-09-21T07:45:27;3.95;;;0.90;;
72951;SDS011;61102;51.956;5.878;2022-09-21T07:48:05;3.75;;;1.00;;
72951;SDS011;61102;51.956;5.878;2022-09-21T07:50:32;4.85;;;1.08;;
72951;SDS011;61102;51.956;5.878;2022-09-21T07:52:59;3.15;;;0.90;;
72951;SDS011;61102;51.956;5.878;2022-09-21T07:57:53;3.33;;;0.80;;
72951;SDS011;61102;51.956;5.878;2022-09-21T08:00:38;4.10;;;1.33;;
72951;SDS011;61102;51.956;5.878;2022-09-21T08:03:05;6.22;;;1.60;;
72951;SDS011;61102;51.956;5.878;2022-09-21T08:05:32;5.43;;;1.23;;
72951;SDS011;61102;51.956;5.878;2022-09-21T08:07:58;3.83;;;1.08;;
72951;SDS011;61102;51.956;5.878;2022-09-21T08:10:25;2.63;;;0.80;;
72951;SDS011;61102;51.956;5.878;2022-09-21T08:12:54;2.88;;;0.90;;
72951;SDS011;61102;51.956;5.878;2022-09-21T08:15:21;5.10;;;1.10;;
72951;SDS011;61102;51.956;5.878;2022-09-21T08:17:48;5.65;;;1.05;;
72951;SDS011;61102;51.956;5.878;2022-09-21T08:20:16;5.55;;;0.90;;
72951;SDS011;61102;51.956;5.878;2022-09-21T08:22:43;5.45;;;1.20;;
72951;SDS011;61102;51.956;5.878;2022-09-21T08:25:10;2.65;;;0.65;;
72951;SDS011;61102;51.956;5.878;2022-09-21T08:27:36;3.25;;;0.80;;
72951;SDS011;61102;51.956;5.878;2022-09-21T08:30:05;3.60;;;0.90;;
72951;SDS011;61102;51.956;5.878;2022-09-21T08:32:32;4.03;;;0.80;;
72951;SDS011;61102;51.956;5.878;2022-09-21T08:34:59;4.65;;;0.90;;
72951;SDS011;61102;51.956;5.878;2022-09-21T08:37:25;2.75;;;0.65;;
72951;SDS011;61102;51.956;5.878;2022-09-21T08:39:52;4.10;;;0.90;;
72951;SDS011;61102;51.956;5.878;2022-09-21T08:44:52;10.15;;;1.33;;
72951;SDS011;61102;51.956;5.878;2022-09-21T08:50:12;2.78;;;0.80;;
72951;SDS011;61102;51.956;5.878;2022-09-21T08:52:44;4.72;;;0.60;;
72951;SDS011;61102;51.956;5.878;2022-09-21T08:55:18;1.92;;;0.50;;
72951;SDS011;61102;51.956;5.878;2022-09-21T08:57:45;4.88;;;0.70;;
72951;SDS011;61102;51.956;5.878;2022-09-21T09:00:13;5.60;;;0.85;;
72951;SDS011;61102;51.956;5.878;2022-09-21T09:02:54;2.80;;;0.65;;
72951;SDS011;61102;51.956;5.878;2022-09-21T09:05:48;2.67;;;0.68;;
72951;SDS011;61102;51.956;5.878;2022-09-21T09:16:50;6.25;;;0.70;;
72951;SDS011;61102;51.956;5.878;2022-09-21T09:19:48;3.75;;;0.60;;
72951;SDS011;61102;51.956;5.878;2022-09-21T09:22:39;2.70;;;0.50;;
72951;SDS011;61102;51.956;5.878;2022-09-21T09:25:27;4.07;;;0.70;;
72951;SDS011;61102;51.956;5.878;2022-09-21T09:31:30;2.72;;;0.40;;
72951;SDS011;61102;51.956;5.878;2022-09-21T09:36:35;3.53;;;0.77;;
72951;SDS011;61102;51.956;5.878;2022-09-21T09:39:10;6.13;;;0.82;;
72951;SDS011;61102;51.956;5.878;2022-09-21T09:53:08;2.85;;;0.40;;
72951;SDS011;61102;51.956;5.878;2022-09-21T09:55:38;2.65;;;0.40;;
72951;SDS011;61102;51.956;5.878;2022-09-21T09:58:18;3.50;;;0.47;;
72951;SDS011;61102;51.956;5.878;2022-09-21T10:00:58;2.42;;;0.35;;
72951;SDS011;61102;51.956;5.878;2022-09-21T10:03:27;2.22;;;0.30;;
72951;SDS011;61102;51.956;5.878;2022-09-21T10:05:54;4.30;;;0.50;;
72951;SDS011;61102;51.956;5.878;2022-09-21T10:11:04;1.60;;;0.30;;
72951;SDS011;61102;51.956;5.878;2022-09-21T10:13:34;1.50;;;0.22;;
72951;SDS011;61102;51.956;5.878;2022-09-21T10:26:41;1.48;;;0.30;;
72951;SDS011;61102;51.956;5.878;2022-09-21T10:29:17;2.17;;;0.28;;
72951;SDS011;61102;51.956;5.878;2022-09-21T10:32:03;2.88;;;0.30;;
72951;SDS011;61102;51.956;5.878;2022-09-21T10:37:31;1.73;;;0.13;;
72951;SDS011;61102;51.956;5.878;2022-09-21T10:40:03;2.15;;;0.30;;
72951;SDS011;61102;51.956;5.878;2022-09-21T10:42:48;2.80;;;0.40;;
72951;SDS011;61102;51.956;5.878;2022-09-21T10:45:17;4.45;;;0.35;;
72951;SDS011;61102;51.956;5.878;2022-09-21T10:50:36;1.60;;;0.40;;
72951;SDS011;61102;51.956;5.878;2022-09-21T10:55:42;1.42;;;0.20;;
72951;SDS011;61102;51.956;5.878;2022-09-21T10:58:15;3.03;;;0.30;;
72951;SDS011;61102;51.956;5.878;2022-09-21T11:00:46;1.55;;;0.22;;
72951;SDS011;61102;51.956;5.878;2022-09-21T11:08:57;3.15;;;0.35;;
72951;SDS011;61102;51.956;5.878;2022-09-21T11:15:08;1.90;;;0.35;;
72951;SDS011;61102;51.956;5.878;2022-09-21T11:17:06;3.70;;;0.40;;
72951;SDS011;61102;51.956;5.878;2022-09-21T11:19:56;3.40;;;0.40;;
72951;SDS011;61102;51.956;5.878;2022-09-21T11:22:38;2.03;;;0.30;;
72951;SDS011;61102;51.956;5.878;2022-09-21T11:25:36;1.58;;;0.30;;
72951;SDS011;61102;51.956;5.878;2022-09-21T11:36:27;5.75;;;0.30;;
72951;SDS011;61102;51.956;5.878;2022-09-21T12:01:47;2.42;;;0.47;;
72951;SDS011;61102;51.956;5.878;2022-09-21T12:07:31;4.65;;;0.40;;
72951;SDS011;61102;51.956;5.878;2022-09-21T12:13:39;3.53;;;0.40;;
72951;SDS011;61102;51.956;5.878;2022-09-21T12:19:24;3.30;;;0.35;;
72951;SDS011;61102;51.956;5.878;2022-09-21T12:21:54;2.88;;;0.40;;
72951;SDS011;61102;51.956;5.878;2022-09-21T12:24:28;2.10;;;0.47;;
72951;SDS011;61102;51.956;5.878;2022-09-21T12:27:00;2.15;;;0.40;;
72951;SDS011;61102;51.956;5.878;2022-09-21T12:34:46;4.15;;;0.50;;
72951;SDS011;61102;51.956;5.878;2022-09-21T12:37:24;5.07;;;0.65;;
72951;SDS011;61102;51.956;5.878;2022-09-21T12:45:20;5.68;;;0.50;;
72951;SDS011;61102;51.956;5.878;2022-09-21T12:50:48;1.90;;;0.40;;
72951;SDS011;61102;51.956;5.878;2022-09-21T12:53:21;1.25;;;0.20;;
72951;SDS011;61102;51.956;5.878;2022-09-21T12:59:00;3.88;;;0.47;;
72951;SDS011;61102;51.956;5.878;2022-09-21T13:01:41;2.45;;;0.40;;
72951;SDS011;61102;51.956;5.878;2022-09-21T13:04:11;4.15;;;0.47;;
72951;SDS011;61102;51.956;5.878;2022-09-21T13:09:47;4.00;;;0.40;;
72951;SDS011;61102;51.956;5.878;2022-09-21T13:14:51;3.50;;;0.40;;
72951;SDS011;61102;51.956;5.878;2022-09-21T13:17:25;3.78;;;0.40;;
72951;SDS011;61102;51.956;5.878;2022-09-21T13:20:02;1.27;;;0.20;;
72951;SDS011;61102;51.956;5.878;2022-09-21T13:22:32;1.67;;;0.20;;
72951;SDS011;61102;51.956;5.878;2022-09-21T13:25:05;3.50;;;0.40;;
72951;SDS011;61102;51.956;5.878;2022-09-21T13:27:56;5.00;;;0.40;;
72951;SDS011;61102;51.956;5.878;2022-09-21T13:30:38;3.30;;;0.50;;
72951;SDS011;61102;51.956;5.878;2022-09-21T13:35:58;3.20;;;0.40;;
72951;SDS011;61102;51.956;5.878;2022-09-21T13:54:33;1.98;;;0.35;;
72951;SDS011;61102;51.956;5.878;2022-09-21T13:59:46;2.33;;;0.50;;
72951;SDS011;61102;51.956;5.878;2022-09-21T14:02:33;3.45;;;0.50;;
72951;SDS011;61102;51.956;5.878;2022-09-21T14:05:07;2.40;;;0.47;;
72951;SDS011;61102;51.956;5.878;2022-09-21T14:08:24;2.95;;;0.35;;
72951;SDS011;61102;51.956;5.878;2022-09-21T14:15:51;1.98;;;0.30;;
72951;SDS011;61102;51.956;5.878;2022-09-21T14:18:19;3.25;;;0.60;;
72951;SDS011;61102;51.956;5.878;2022-09-21T14:23:33;1.52;;;0.30;;
72951;SDS011;61102;51.956;5.878;2022-09-21T14:26:18;2.50;;;0.38;;
72951;SDS011;61102;51.956;5.878;2022-09-21T14:28:57;2.47;;;0.38;;
72951;SDS011;61102;51.956;5.878;2022-09-21T14:31:32;3.33;;;0.30;;
72951;SDS011;61102;51.956;5.878;2022-09-21T14:34:02;3.00;;;0.30;;
72951;SDS011;61102;51.956;5.878;2022-09-21T14:36:36;4.43;;;0.40;;
72951;SDS011;61102;51.956;5.878;2022-09-21T14:39:14;3.53;;;0.40;;
72951;SDS011;61102;51.956;5.878;2022-09-21T14:41:44;3.22;;;0.70;;
72951;SDS011;61102;51.956;5.878;2022-09-21T14:44:17;3.58;;;0.50;;
72951;SDS011;61102;51.956;5.878;2022-09-21T14:55:16;2.55;;;0.60;;
72951;SDS011;61102;51.956;5.878;2022-09-21T15:00:56;2.88;;;0.30;;
72951;SDS011;61102;51.956;5.878;2022-09-21T15:04:01;4.00;;;0.40;;
72951;SDS011;61102;51.956;5.878;2022-09-21T15:16:02;2.03;;;0.30;;
72951;SDS011;61102;51.956;5.878;2022-09-21T15:18:39;1.55;;;0.30;;
72951;SDS011;61102;51.956;5.878;2022-09-21T15:21:25;2.38;;;0.30;;
72951;SDS011;61102;51.956;5.878;2022-09-21T15:23:54;2.70;;;0.43;;
72951;SDS011;61102;51.956;5.878;2022-09-21T15:26:27;2.65;;;0.32;;
72951;SDS011;61102;51.956;5.878;2022-09-21T15:28:56;1.80;;;0.40;;
72951;SDS011;61102;51.956;5.878;2022-09-21T15:31:24;2.20;;;0.30;;
72951;SDS011;61102;51.956;5.878;2022-09-21T15:34:07;3.47;;;0.50;;
72951;SDS011;61102;51.956;5.878;2022-09-21T15:36:36;3.28;;;0.40;;
72951;SDS011;61102;51.956;5.878;2022-09-21T15:39:04;1.73;;;0.35;;
72951;SDS011;61102;51.956;5.878;2022-09-21T15:41:41;2.30;;;0.30;;
72951;SDS011;61102;51.956;5.878;2022-09-21T15:44:16;3.65;;;0.40;;
72951;SDS011;61102;51.956;5.878;2022-09-21T15:46:50;1.48;;;0.10;;
72951;SDS011;61102;51.956;5.878;2022-09-21T15:49:26;2.03;;;0.30;;
72951;SDS011;61102;51.956;5.878;2022-09-21T15:54:38;2.08;;;0.30;;
72951;SDS011;61102;51.956;5.878;2022-09-21T15:57:22;4.22;;;0.50;;
72951;SDS011;61102;51.956;5.878;2022-09-21T16:00:01;3.65;;;0.40;;
72951;SDS011;61102;51.956;5.878;2022-09-21T16:05:30;3.30;;;0.32;;
72951;SDS011;61102;51.956;5.878;2022-09-21T16:08:06;1.42;;;0.20;;
72951;SDS011;61102;51.956;5.878;2022-09-21T16:13:42;3.10;;;0.22;;
72951;SDS011;61102;51.956;5.878;2022-09-21T16:16:29;1.90;;;0.25;;
72951;SDS011;61102;51.956;5.878;2022-09-21T16:18:56;3.03;;;0.40;;
72951;SDS011;61102;51.956;5.878;2022-09-21T16:21:32;2.10;;;0.40;;
72951;SDS011;61102;51.956;5.878;2022-09-21T16:24:16;0.98;;;0.20;;
72951;SDS011;61102;51.956;5.878;2022-09-21T16:26:55;1.52;;;0.20;;
72951;SDS011;61102;51.956;5.878;2022-09-21T16:29:24;3.08;;;0.38;;
72951;SDS011;61102;51.956;5.878;2022-09-21T16:34:43;2.00;;;0.40;;
72951;SDS011;61102;51.956;5.878;2022-09-21T16:37:28;1.08;;;0.22;;
72951;SDS011;61102;51.956;5.878;2022-09-21T16:39:58;2.13;;;0.20;;
72951;SDS011;61102;51.956;5.878;2022-09-21T16:42:26;1.90;;;0.35;;
72951;SDS011;61102;51.956;5.878;2022-09-21T16:44:57;3.60;;;0.50;;
72951;SDS011;61102;51.956;5.878;2022-09-21T16:49:52;5.10;;;0.80;;
72951;SDS011;61102;51.956;5.878;2022-09-21T16:52:22;2.80;;;0.50;;
72951;SDS011;61102;51.956;5.878;2022-09-21T16:54:49;1.25;;;0.35;;
72951;SDS011;61102;51.956;5.878;2022-09-21T16:57:16;0.52;;;0.25;;
72951;SDS011;61102;51.956;5.878;2022-09-21T16:59:42;1.95;;;0.32;;
72951;SDS011;61102;51.956;5.878;2022-09-21T17:02:09;2.65;;;0.38;;
72951;SDS011;61102;51.956;5.878;2022-09-21T17:04:38;2.35;;;0.30;;
72951;SDS011;61102;51.956;5.878;2022-09-21T17:07:05;1.08;;;0.25;;
72951;SDS011;61102;51.956;5.878;2022-09-21T17:09:36;2.88;;;0.50;;
72951;SDS011;61102;51.956;5.878;2022-09-21T17:12:04;1.20;;;0.30;;
72951;SDS011;61102;51.956;5.878;2022-09-21T17:14:33;2.17;;;0.32;;
72951;SDS011;61102;51.956;5.878;2022-09-21T17:17:23;1.02;;;0.20;;
72951;SDS011;61102;51.956;5.878;2022-09-21T17:19:49;1.33;;;0.30;;
72951;SDS011;61102;51.956;5.878;2022-09-21T17:22:18;1.95;;;0.28;;
72951;SDS011;61102;51.956;5.878;2022-09-21T17:24:45;1.08;;;0.40;;
72951;SDS011;61102;51.956;5.878;2022-09-21T17:27:13;2.45;;;0.60;;
72951;SDS011;61102;51.956;5.878;2022-09-21T17:29:43;0.65;;;0.30;;
72951;SDS011;61102;51.956;5.878;2022-09-21T17:32:14;1.08;;;0.35;;
72951;SDS011;61102;51.956;5.878;2022-09-21T17:34:45;1.77;;;0.30;;
72951;SDS011;61102;51.956;5.878;2022-09-21T17:37:14;0.60;;;0.40;;
72951;SDS011;61102;51.956;5.878;2022-09-21T17:39:41;1.13;;;0.30;;
72951;SDS011;61102;51.956;5.878;2022-09-21T17:47:22;1.80;;;0.38;;
72951;SDS011;61102;51.956;5.878;2022-09-21T17:49:52;1.23;;;0.30;;
72951;SDS011;61102;51.956;5.878;2022-09-21T17:52:20;1.42;;;0.40;;
72951;SDS011;61102;51.956;5.878;2022-09-21T17:55:07;4.78;;;0.80;;
72951;SDS011;61102;51.956;5.878;2022-09-21T18:03:38;1.48;;;0.43;;
72951;SDS011;61102;51.956;5.878;2022-09-21T18:06:09;1.13;;;0.32;;
72951;SDS011;61102;51.956;5.878;2022-09-21T18:08:36;1.88;;;0.43;;
72951;SDS011;61102;51.956;5.878;2022-09-21T18:22:37;2.63;;;0.50;;
72951;SDS011;61102;51.956;5.878;2022-09-21T18:25:20;4.93;;;0.90;;
72951;SDS011;61102;51.956;5.878;2022-09-21T18:31:18;2.25;;;0.40;;
72951;SDS011;61102;51.956;5.878;2022-09-21T18:36:28;4.50;;;1.20;;
72951;SDS011;61102;51.956;5.878;2022-09-21T18:41:47;5.10;;;1.30;;
72951;SDS011;61102;51.956;5.878;2022-09-21T18:44:25;4.68;;;1.27;;
72951;SDS011;61102;51.956;5.878;2022-09-21T18:52:46;2.13;;;0.60;;
72951;SDS011;61102;51.956;5.878;2022-09-21T18:57:53;1.42;;;0.50;;
72951;SDS011;61102;51.956;5.878;2022-09-21T19:00:22;3.95;;;0.73;;
72951;SDS011;61102;51.956;5.878;2022-09-21T19:02:57;2.55;;;0.60;;
72951;SDS011;61102;51.956;5.878;2022-09-21T19:05:25;3.13;;;0.77;;
72951;SDS011;61102;51.956;5.878;2022-09-21T19:08:07;3.75;;;1.08;;
72951;SDS011;61102;51.956;5.878;2022-09-21T19:10:52;3.60;;;1.08;;
72951;SDS011;61102;51.956;5.878;2022-09-21T19:21:44;4.93;;;1.10;;
72951;SDS011;61102;51.956;5.878;2022-09-21T19:27:39;4.07;;;0.90;;
72951;SDS011;61102;51.956;5.878;2022-09-21T19:30:12;3.47;;;1.20;;
72951;SDS011;61102;51.956;5.878;2022-09-21T19:35:47;3.38;;;1.00;;
72951;SDS011;61102;51.956;5.878;2022-09-21T19:38:14;3.65;;;1.00;;
72951;SDS011;61102;51.956;5.878;2022-09-21T19:40:40;3.67;;;1.00;;
72951;SDS011;61102;51.956;5.878;2022-09-21T19:49:22;3.30;;;1.10;;
72951;SDS011;61102;51.956;5.878;2022-09-21T19:51:57;3.63;;;1.00;;
72951;SDS011;61102;51.956;5.878;2022-09-21T19:54:28;5.15;;;1.40;;
72951;SDS011;61102;51.956;5.878;2022-09-21T19:57:15;3.95;;;1.33;;
72951;SDS011;61102;51.956;5.878;2022-09-21T20:00:03;3.03;;;1.02;;
72951;SDS011;61102;51.956;5.878;2022-09-21T20:02:33;4.63;;;0.90;;
72951;SDS011;61102;51.956;5.878;2022-09-21T20:05:10;3.95;;;0.80;;
72951;SDS011;61102;51.956;5.878;2022-09-21T20:11:12;4.15;;;1.10;;
72951;SDS011;61102;51.956;5.878;2022-09-21T20:14:11;4.88;;;1.30;;